Time;durP1;ratioP1;P1;durP2;ratioP2;P2;SDS_P1;SDS_P2;PMS_P1;PMS_P2;Temp;Humidity;BMP_temperature;BMP_pressure;BME280_temperature;BME280_humidity;BME280_pressure;Samples;Min_cycle;Max_cycle;Signal;HPM_P1;HPM_P2
2022/10/03 00:01:48;;;;;;;5.37;3.70;;;;;;;22.04;45.14;100593.09;4087141;28;20247;-31
2022/10/03 00:04:08;;;;;;;6.37;4.10;;;;;;;21.86;45.32;100563.19;4078476;28;20739;-34
2022/10/03 00:06:10;;;;;;;4.83;3.43;;;;;;;21.44;45.77;100601.34;4078108;28;20326;-29
2022/10/03 00:08:50;;;;;;;3.90;3.50;;;;;;;21.49;45.39;100585.31;4091778;28;20250;-30
2022/10/03 00:11:06;;;;;;;3.63;3.27;;;;;;;22.35;44.58;100531.09;4072309;29;20344;-35
2022/10/03 00:13:39;;;;;;;4.00;3.27;;;;;;;22.48;44.36;100559.97;4088167;29;20266;-29
2022/10/03 00:15:46;;;;;;;4.00;3.40;;;;;;;21.32;45.74;100605.72;4092226;28;20241;-31
2022/10/03 00:18:01;;;;;;;3.40;3.10;;;;;;;21.64;46.00;100560.75;4088769;28;20673;-29
2022/10/03 00:20:41;;;;;;;3.90;3.07;;;;;;;22.64;43.90;100546.72;4089484;28;20312;-29
2022/10/03 00:23:15;;;;;;;5.07;3.00;;;;;;;23.00;42.90;100550.63;4101242;28;20629;-31
2022/10/03 00:25:26;;;;;;;3.87;3.40;;;;;;;22.51;43.35;100598.31;4081929;28;20317;-30
2022/10/03 00:27:40;;;;;;;3.73;3.43;;;;;;;21.63;44.48;100632.16;4106840;28;20720;-31
2022/10/03 00:29:48;;;;;;;3.70;3.10;;;;;;;23.22;42.38;100562.97;4104364;28;20233;-31
2022/10/03 00:32:03;;;;;;;4.13;3.73;;;;;;;23.00;42.37;100598.63;4084029;28;20886;-30
2022/10/03 00:34:27;;;;;;;3.30;3.00;;;;;;;21.79;44.22;100654.41;4094326;28;20242;-31
2022/10/03 00:36:44;;;;;;;4.57;3.33;;;;;;;20.68;45.68;100651.19;4065614;28;20228;-31
2022/10/03 00:39:12;;;;;;;3.00;2.80;;;;;;;20.66;46.36;100612.75;4107792;28;20253;-31
2022/10/03 00:41:52;;;;;;;3.53;3.23;;;;;;;22.27;44.07;100541.09;4096280;28;20687;-30
2022/10/03 00:44:31;;;;;;;3.83;3.53;;;;;;;22.31;44.13;100538.81;4082403;28;20232;-31
2022/10/03 00:46:55;;;;;;;6.07;3.07;;;;;;;22.07;44.10;100591.84;4094253;28;20299;-30
2022/10/03 00:49:33;;;;;;;4.23;3.17;;;;;;;22.69;42.93;100546.06;4094807;28;20238;-32
2022/10/03 00:52:07;;;;;;;13.53;3.53;;;;;;;22.57;42.63;100602.03;4097573;28;20721;-30
2022/10/03 00:54:12;;;;;;;13.40;4.13;;;;;;;21.83;43.01;100651.06;4100315;28;20928;-33
2022/10/03 00:56:39;;;;;;;10.50;3.70;;;;;;;22.46;42.97;100595.44;4104219;28;20450;-30
2022/10/03 00:58:58;;;;;;;5.10;3.17;;;;;;;23.05;42.01;100582.53;4104433;28;20270;-33
2022/10/03 01:01:29;;;;;;;8.37;3.30;;;;;;;23.02;42.32;100589.22;4094260;28;20286;-32
2022/10/03 01:03:31;;;;;;;11.83;3.20;;;;;;;22.50;42.31;100653.56;4091653;28;20247;-32
2022/10/03 01:05:59;;;;;;;3.73;3.40;;;;;;;23.33;41.76;100603.78;4088554;28;20358;-31
2022/10/03 01:08:29;;;;;;;6.60;3.50;;;;;;;23.35;41.86;100619.81;4088421;28;20270;-29
2022/10/03 01:13:11;;;;;;;7.67;4.40;;;;;;;23.30;41.75;100635.91;4159646;28;20289;-31
2022/10/03 01:15:42;;;;;;;6.00;4.03;;;;;;;22.61;42.81;100681.88;4119462;28;20320;-32
2022/10/03 01:18:04;;;;;;;5.93;4.47;;;;;;;22.88;42.51;100665.41;4139843;28;20247;-31
2022/10/03 01:20:17;;;;;;;5.80;3.97;;;;;;;22.33;42.95;100693.84;4159043;28;20243;-33
2022/10/03 01:22:50;;;;;;;5.97;4.47;;;;;;;22.10;43.63;100676.19;4141250;28;20236;-33
2022/10/03 01:25:17;;;;;;;6.53;4.90;;;;;;;22.74;42.34;100659.25;4144881;28;20223;-36
2022/10/03 01:30:21;;;;;;;5.00;4.43;;;;;;;22.53;42.70;100676.69;4141195;28;20240;-31
2022/10/03 01:30:24;;;;;;;8.17;4.70;;;;;;;21.84;44.28;100703.34;4133872;28;20320;-32
2022/10/03 01:32:41;;;;;;;5.20;4.30;;;;;;;21.63;44.82;100689.00;4139843;28;20213;-32
2022/10/03 01:35:21;;;;;;;5.23;4.40;;;;;;;22.32;43.98;100639.88;4145722;28;20304;-33
2022/10/03 01:37:51;;;;;;;5.97;4.57;;;;;;;22.77;42.83;100621.69;4144384;28;20213;-33
2022/10/03 01:40:10;;;;;;;9.33;4.93;;;;;;;21.94;44.10;100665.81;4144482;28;20241;-33
2022/10/03 01:42:31;;;;;;;5.93;4.47;;;;;;;22.14;44.00;100651.41;4140237;28;20224;-31
2022/10/03 01:44:53;;;;;;;7.10;4.90;;;;;;;22.36;43.77;100643.84;4131830;28;20213;-33
2022/10/03 01:47:18;;;;;;;6.50;5.37;;;;;;;22.01;44.14;100653.09;4141485;28;20276;-33
2022/10/03 01:49:37;;;;;;;6.73;4.27;;;;;;;21.57;44.75;100661.91;4132237;28;20230;-31
2022/10/03 01:52:09;;;;;;;6.83;4.50;;;;;;;22.30;43.91;100618.41;4143843;28;20630;-32
2022/10/03 01:54:16;;;;;;;6.60;4.73;;;;;;;22.37;43.66;100646.34;4143933;28;20206;-33
2022/10/03 01:56:26;;;;;;;5.70;4.87;;;;;;;22.46;43.43;100642.31;4137774;28;20292;-32
2022/10/03 01:58:57;;;;;;;8.10;4.83;;;;;;;22.46;43.53;100636.91;4133530;28;20245;-31
2022/10/03 02:01:48;;;;;;;7.13;5.13;;;;;;;22.20;43.77;100651.38;4138199;28;20463;-31
2022/10/03 02:38:12;;;;;;;5.23;3.67;;;;;;;20.72;45.78;100636.25;4043746;29;20239;-33
2022/10/03 02:40:23;;;;;;;6.07;3.90;;;;;;;20.34;45.88;100650.25;4055436;28;20209;-32
2022/10/03 02:42:51;;;;;;;5.10;3.80;;;;;;;21.58;44.43;100580.53;4133835;28;20897;-32
2022/10/03 02:45:14;;;;;;;3.80;3.50;;;;;;;20.84;45.04;100658.09;4140550;28;20229;-32
2022/10/03 02:47:38;;;;;;;5.17;3.90;;;;;;;21.30;45.05;100600.53;4142783;28;20224;-32
2022/10/03 02:50:12;;;;;;;4.27;3.87;;;;;;;21.36;44.59;100597.00;4143053;28;20205;-31
2022/10/03 02:52:35;;;;;;;4.77;3.60;;;;;;;20.76;45.17;100645.59;4142250;28;20697;-34
2022/10/03 02:54:58;;;;;;;3.90;3.53;;;;;;;20.91;44.64;100637.31;4133335;28;20217;-32
2022/10/03 02:57:36;;;;;;;4.10;3.70;;;;;;;21.25;44.52;100603.03;4132229;28;20209;-32
2022/10/03 03:00:04;;;;;;;5.30;3.73;;;;;;;20.34;45.41;100677.25;4111802;28;20659;-33
2022/10/03 03:02:24;;;;;;;8.60;3.90;;;;;;;19.14;47.74;100673.69;4143777;28;20323;-34
2022/10/03 03:05:14;;;;;;;5.67;4.40;;;;;;;21.11;45.01;100585.16;4142795;28;20213;-34
2022/10/03 03:07:54;;;;;;;6.83;5.63;;;;;;;21.60;44.46;100575.72;4070083;29;20322;-35
2022/10/03 03:10:20;;;;;;;7.33;5.10;;;;;;;21.82;43.73;100599.84;4066585;29;20244;-32
2022/10/03 03:12:46;;;;;;;7.27;4.97;;;;;;;21.85;43.48;100602.97;4101967;28;20340;-32
2022/10/03 03:15:45;;;;;;;7.73;4.77;;;;;;;21.79;43.86;100606.50;4145910;28;20288;-34
2022/10/03 03:18:14;;;;;;;6.30;5.33;;;;;;;21.59;43.88;100644.41;4077743;29;20781;-32
2022/10/03 03:20:28;;;;;;;6.23;4.70;;;;;;;21.84;44.11;100614.81;4075760;29;20236;-33
2022/10/03 03:22:38;;;;;;;8.37;4.97;;;;;;;22.22;43.27;100615.91;4100804;28;20328;-33
2022/10/03 03:25:09;;;;;;;10.17;5.03;;;;;;;22.01;43.91;100636.03;4131851;28;20265;-31
2022/10/03 03:27:39;;;;;;;6.93;5.00;;;;;;;22.65;42.98;100609.91;4142270;28;20586;-35
2022/10/03 03:30:02;;;;;;;6.03;5.43;;;;;;;22.89;42.29;100612.88;4139336;28;20299;-33
2022/10/03 03:32:19;;;;;;;7.27;4.73;;;;;;;22.96;42.41;100616.38;4145279;28;20241;-33
2022/10/03 03:34:27;;;;;;;6.23;5.10;;;;;;;22.97;42.42;100632.44;4140790;28;20260;-31
2022/10/03 03:36:47;;;;;;;8.63;5.60;;;;;;;22.54;42.83;100672.91;4137256;28;20710;-32
2022/10/03 03:39:07;;;;;;;7.50;5.30;;;;;;;22.13;43.65;100698.47;4130890;28;20305;-32
2022/10/03 03:41:29;;;;;;;7.97;5.07;;;;;;;21.80;44.42;100692.09;4140004;28;20323;-32
2022/10/03 03:43:33;;;;;;;6.33;4.90;;;;;;;21.90;44.73;100668.13;4142961;28;20205;-33
2022/10/03 03:45:56;;;;;;;7.13;5.20;;;;;;;22.60;43.50;100615.16;4145102;28;20311;-32
2022/10/03 03:48:14;;;;;;;6.13;4.67;;;;;;;22.62;43.25;100634.72;4146237;28;20213;-34
2022/10/03 03:50:55;;;;;;;5.10;4.50;;;;;;;22.94;42.63;100623.91;4142911;28;20347;-32
2022/10/03 03:53:27;;;;;;;9.07;5.23;;;;;;;22.60;43.07;100655.78;4136495;28;21067;-32
2022/10/03 03:55:56;;;;;;;5.57;4.83;;;;;;;22.59;42.85;100668.53;4142308;28;20244;-34
2022/10/03 03:58:12;;;;;;;8.60;5.40;;;;;;;21.95;43.91;100699.13;4143613;28;20229;-32
2022/10/03 04:00:30;;;;;;;5.87;4.90;;;;;;;22.14;43.73;100678.50;4146144;28;20202;-37
2022/10/03 04:02:49;;;;;;;8.63;5.20;;;;;;;22.59;43.14;100641.44;4125959;28;20714;-32
2022/10/03 04:05:08;;;;;;;6.67;4.67;;;;;;;22.86;42.69;100635.00;4140533;28;20306;-34
2022/10/03 04:07:19;;;;;;;6.07;5.00;;;;;;;22.88;42.39;100641.88;4134837;28;20328;-32
2022/10/03 04:09:55;;;;;;;7.30;5.30;;;;;;;22.27;42.97;100694.66;4142139;28;20232;-32
2022/10/03 04:12:45;;;;;;;5.40;4.90;;;;;;;22.36;43.08;100660.09;4147336;28;20276;-32
2022/10/03 04:15:18;;;;;;;8.63;5.23;;;;;;;22.28;42.70;100691.78;4143563;28;20216;-32
2022/10/03 04:20:04;;;;;;;6.10;4.67;;;;;;;22.59;42.67;100663.09;4141367;28;20311;-34
2022/10/03 04:22:13;;;;;;;9.90;5.07;;;;;;;22.55;42.63;100680.84;4147412;28;20233;-34
2022/10/03 04:24:45;;;;;;;7.00;4.97;;;;;;;22.58;42.91;100687.72;4143473;28;20272;-33
2022/10/03 04:26:58;;;;;;;6.87;5.23;;;;;;;22.73;42.63;100677.41;4146617;28;20369;-32
2022/10/03 04:29:46;;;;;;;6.57;5.23;;;;;;;22.82;42.73;100673.38;4139935;28;20217;-32
2022/10/03 04:32:26;;;;;;;6.80;5.33;;;;;;;22.75;42.72;100696.19;4146540;28;20233;-33
2022/10/03 04:34:34;;;;;;;8.93;5.80;;;;;;;22.85;42.74;100685.69;4140554;28;20245;-34
2022/10/03 04:36:42;;;;;;;6.93;5.40;;;;;;;22.18;43.56;100725.75;4144415;28;20336;-34
2022/10/03 04:39:04;;;;;;;9.53;5.57;;;;;;;22.54;43.59;100689.19;4139810;28;20236;-34
2022/10/03 04:41:41;;;;;;;8.17;6.30;;;;;;;22.69;43.35;100687.00;4133430;28;20340;-32
2022/10/03 04:44:07;;;;;;;7.57;5.67;;;;;;;22.60;43.21;100691.84;4090334;28;20278;-32
2022/10/03 04:46:33;;;;;;;10.00;5.87;;;;;;;23.13;42.88;100655.50;4146292;28;20718;-34
2022/10/03 04:48:56;;;;;;;8.13;6.40;;;;;;;22.76;43.45;100684.25;4145036;28;20255;-33
2022/10/03 04:51:15;;;;;;;8.53;6.10;;;;;;;22.80;43.45;100689.03;4132065;28;20263;-31
2022/10/03 04:53:38;;;;;;;7.37;5.73;;;;;;;21.81;44.35;100731.66;4141144;28;20648;-31
2022/10/03 04:55:52;;;;;;;9.10;5.80;;;;;;;22.33;44.04;100679.50;4133700;28;21211;-32
2022/10/03 04:58:14;;;;;;;7.53;5.57;;;;;;;21.77;44.87;100710.66;4140429;28;20288;-31
2022/10/03 05:00:32;;;;;;;7.00;5.30;;;;;;;21.11;45.90;100696.84;4141560;28;20296;-33
2022/10/03 05:03:02;;;;;;;8.13;5.67;;;;;;;21.42;45.16;100676.47;4144241;28;20209;-31
2022/10/03 05:05:51;;;;;;;8.50;5.60;;;;;;;21.97;44.84;100630.22;4141333;28;20245;-32
2022/10/03 05:08:16;;;;;;;7.83;5.37;;;;;;;22.26;43.72;100644.25;4124461;28;20256;-32
2022/10/03 05:10:43;;;;;;;6.33;5.07;;;;;;;21.59;44.30;100703.94;4133841;28;20233;-31
2022/10/03 05:13:19;;;;;;;7.00;5.07;;;;;;;21.33;45.13;100726.44;4142852;28;20292;-33
2022/10/03 05:15:41;;;;;;;5.90;5.27;;;;;;;22.14;44.10;100651.41;4147002;28;20241;-32
2022/10/03 05:18:09;;;;;;;7.80;5.93;;;;;;;22.56;43.20;100641.84;4139878;28;20244;-34
2022/10/03 05:20:20;;;;;;;10.23;9.17;;;;;;;22.65;42.85;100664.09;4140945;28;20308;-33
2022/10/03 05:22:37;;;;;;;12.40;11.10;;;;;;;22.15;43.27;100712.63;4134246;28;20332;-33
2022/10/03 05:25:03;;;;;;;15.90;13.10;;;;;;;22.61;42.66;100685.41;4132618;28;20213;-31
2022/10/03 05:27:23;;;;;;;14.70;9.80;;;;;;;23.01;41.69;100674.34;4142152;28;20252;-31
2022/10/03 05:29:37;;;;;;;8.90;6.70;;;;;;;22.95;41.76;100696.91;4145742;28;20202;-34
2022/10/03 05:32:06;;;;;;;9.50;6.43;;;;;;;22.31;42.77;100750.13;4143343;28;20860;-32
2022/10/03 05:34:22;;;;;;;15.37;7.50;;;;;;;22.53;42.71;100720.06;4141163;28;20206;-31
2022/10/03 05:36:54;;;;;;;8.97;7.23;;;;;;;22.54;42.83;100706.28;4134154;28;20217;-33
2022/10/03 05:39:01;;;;;;;8.40;6.47;;;;;;;21.86;43.84;100756.22;4120132;28;20638;-33
2022/10/03 05:41:15;;;;;;;8.00;6.40;;;;;;;21.25;44.98;100745.56;4141262;28;20268;-34
2022/10/03 05:43:57;;;;;;;12.50;6.80;;;;;;;21.62;44.76;100713.53;4143833;28;20229;-38
2022/10/03 05:46:10;;;;;;;10.73;8.00;;;;;;;21.93;43.87;100696.63;4144795;28;20233;-35
2022/10/03 05:48:38;;;;;;;10.07;8.47;;;;;;;20.72;44.94;100762.41;4144614;28;21181;-32
2022/10/03 05:51:12;;;;;;;8.97;7.90;;;;;;;20.38;45.94;100764.97;4132936;28;20332;-32
2022/10/03 05:53:35;;;;;;;11.43;7.60;;;;;;;20.72;45.28;100752.47;4134247;28;20379;-32
2022/10/03 05:56:06;;;;;;;11.37;8.03;;;;;;;21.75;44.25;100697.31;4137365;28;20606;-33
2022/10/03 05:58:37;;;;;;;11.37;7.27;;;;;;;19.14;48.17;100776.97;4143031;28;20655;-34
2022/10/03 06:00:57;;;;;;;9.37;6.77;;;;;;;18.83;49.00;100753.00;4140509;28;20238;-33
2022/10/03 06:03:07;;;;;;;10.33;6.77;;;;;;;20.84;46.11;100652.69;4144682;28;20206;-34
2022/10/03 06:05:32;;;;;;;7.53;6.70;;;;;;;21.94;43.83;100684.78;4137380;28;20292;-32
2022/10/03 06:07:43;;;;;;;8.50;7.00;;;;;;;21.33;44.68;100742.66;4132854;28;20952;-35
2022/10/03 06:10:03;;;;;;;8.20;6.93;;;;;;;21.66;44.04;100728.31;4140803;28;20248;-32
2022/10/03 06:13:02;;;;;;;10.43;6.63;;;;;;;21.88;44.10;100713.53;4139003;28;21523;-37
2022/10/03 06:15:38;;;;;;;9.37;7.50;;;;;;;22.16;43.52;100738.69;4106549;28;20252;-34
2022/10/03 06:17:56;;;;;;;10.20;8.47;;;;;;;22.48;42.96;100728.00;4136511;28;20691;-33
2022/10/03 06:20:40;;;;;;;9.93;8.30;;;;;;;21.99;43.77;100763.50;4132483;28;20990;-32
2022/10/03 06:23:24;;;;;;;12.37;7.87;;;;;;;22.22;43.53;100740.53;4101845;28;20225;-32
2022/10/03 06:26:05;;;;;;;8.73;7.43;;;;;;;22.34;43.23;100740.72;4116827;28;20218;-36
2022/10/03 06:28:19;;;;;;;9.43;7.07;;;;;;;22.54;43.02;100732.53;4139645;28;20336;-33
2022/10/03 06:30:24;;;;;;;11.50;7.43;;;;;;;22.58;42.67;100739.22;4143610;28;20211;-33
2022/10/03 06:33:08;;;;;;;10.83;7.67;;;;;;;23.07;42.10;100721.47;4132353;28;20213;-34
2022/10/03 06:35:13;;;;;;;15.03;7.93;;;;;;;22.96;42.40;100744.69;4121338;28;20241;-33
2022/10/03 06:37:47;;;;;;;15.73;8.07;;;;;;;22.78;42.33;100756.22;4145532;28;20707;-33
2022/10/03 06:40:33;;;;;;;11.73;7.63;;;;;;;22.33;43.74;100782.44;4088439;28;20630;-36
2022/10/03 06:42:50;;;;;;;10.17;6.90;;;;;;;21.74;44.43;100817.44;4141199;28;20835;-34
2022/10/03 06:45:39;;;;;;;13.10;7.83;;;;;;;22.06;43.93;100799.53;4136456;28;20264;-37
2022/10/03 06:47:59;;;;;;;10.63;7.47;;;;;;;22.18;43.52;100793.47;4066780;29;20298;-34
2022/10/03 06:50:28;;;;;;;10.67;6.83;;;;;;;22.74;43.08;100746.00;4070669;29;20306;-36
2022/10/03 06:52:55;;;;;;;9.00;6.93;;;;;;;22.40;43.60;100781.34;4098304;28;20686;-33
2022/10/03 06:55:24;;;;;;;9.37;6.87;;;;;;;22.37;43.21;100779.09;4141209;28;20530;-35
2022/10/03 06:57:35;;;;;;;12.00;7.27;;;;;;;22.23;43.68;100801.81;4143264;28;20245;-35
2022/10/03 06:59:51;;;;;;;10.30;7.63;;;;;;;22.48;43.76;100782.19;4140592;28;20332;-34
2022/10/03 07:01:53;;;;;;;10.70;7.50;;;;;;;22.65;43.49;100767.13;4128655;28;20279;-35
2022/10/03 07:04:23;;;;;;;10.07;6.87;;;;;;;23.17;42.30;100742.69;4138787;28;20724;-33
2022/10/03 07:06:32;;;;;;;17.07;11.03;;;;;;;22.77;43.04;100787.06;4140637;28;20217;-33
2022/10/03 07:08:52;;;;;;;13.27;8.97;;;;;;;22.52;43.72;100796.97;4142042;28;20320;-32
2022/10/03 07:11:09;;;;;;;11.43;7.87;;;;;;;22.04;44.18;100815.16;4139697;28;20225;-33
2022/10/03 07:13:11;;;;;;;12.07;8.37;;;;;;;21.91;44.19;100820.56;4169188;23;20239;-83
2022/10/03 07:15:50;;;;;;;11.80;7.67;;;;;;;22.51;43.87;100779.88;4145740;28;20331;-87
2022/10/03 07:18:15;;;;;;;10.17;6.97;;;;;;;22.50;43.81;100797.19;4164785;28;20231;-85
2022/10/03 07:20:43;;;;;;;10.70;7.00;;;;;;;22.50;44.06;100786.34;4175747;28;20664;-87
2022/10/03 07:23:23;;;;;;;11.40;6.77;;;;;;;22.75;43.85;100766.66;4152762;28;20650;-84
2022/10/03 07:25:43;;;;;;;9.93;7.50;;;;;;;22.92;43.56;100750.72;4151751;28;20271;-85
2022/10/03 07:27:58;;;;;;;7.87;7.00;;;;;;;22.95;43.29;100762.00;4163737;28;20685;-85
2022/10/03 07:30:20;;;;;;;9.97;7.73;;;;;;;22.87;43.66;100758.69;4166274;28;20236;-85
2022/10/03 07:32:31;;;;;;;10.20;7.67;;;;;;;22.71;43.73;100781.69;4158916;28;20248;-86
2022/10/03 07:34:54;;;;;;;10.77;6.93;;;;;;;22.25;44.63;100810.53;4170010;28;20323;-84
2022/10/03 07:39:54;;;;;;;12.60;7.17;;;;;;;22.86;43.95;100768.72;4169819;28;20733;-85
2022/10/03 07:42:14;;;;;;;10.23;6.80;;;;;;;21.95;45.34;100794.75;4166221;28;20266;-86
2022/10/03 07:44:35;;;;;;;9.53;6.83;;;;;;;22.36;44.61;100777.41;4163240;28;20255;-85
2022/10/03 07:47:03;;;;;;;11.87;7.57;;;;;;;21.95;45.18;100807.44;4150304;28;20340;-84
2022/10/03 07:49:24;;;;;;;9.90;7.07;;;;;;;22.63;44.31;100775.44;4155984;28;20350;-85
2022/10/03 07:51:44;;;;;;;12.70;7.33;;;;;;;22.63;43.91;100775.44;4148444;28;20339;-85
2022/10/03 07:54:18;;;;;;;11.40;6.90;;;;;;;22.91;43.76;100766.16;4169285;28;20270;-85
2022/10/03 07:56:53;;;;;;;11.43;7.23;;;;;;;22.14;44.68;100822.84;4118216;28;20775;-84
2022/10/03 07:59:15;;;;;;;9.37;7.00;;;;;;;22.38;44.69;100791.59;4147594;28;20419;-86
2022/10/03 08:01:26;;;;;;;9.67;7.57;;;;;;;22.73;43.80;100774.19;4168805;28;21086;-85
2022/10/03 08:03:58;;;;;;;10.17;7.03;;;;;;;22.23;44.92;100815.34;4151949;28;20338;-87
2022/10/03 08:06:17;;;;;;;11.60;6.60;;;;;;;22.50;44.61;100796.34;4158964;28;20278;-83
2022/10/03 08:08:27;;;;;;;8.43;6.93;;;;;;;22.49;44.76;100808.22;4168927;28;20208;-83
2022/10/03 08:10:47;;;;;;;9.23;7.13;;;;;;;23.06;43.83;100757.75;4167969;28;20243;-82
2022/10/03 08:13:08;;;;;;;10.60;7.13;;;;;;;22.48;44.74;100810.13;4142374;28;20490;-84
2022/10/03 08:15:14;;;;;;;10.60;6.73;;;;;;;22.85;44.33;100764.31;4150122;28;20701;-86
2022/10/03 08:17:18;;;;;;;9.43;6.60;;;;;;;21.86;45.84;100844.72;4157459;28;20673;-85
2022/10/03 08:19:47;;;;;;;9.93;6.83;;;;;;;22.62;45.10;100772.97;4154350;28;21227;-84
2022/10/03 08:22:04;;;;;;;10.50;7.23;;;;;;;22.79;44.63;100803.13;4172561;28;20235;-85
2022/10/03 08:24:24;;;;;;;13.00;6.80;;;;;;;22.29;44.94;100830.81;4148779;28;20324;-85
2022/10/03 08:26:40;;;;;;;9.73;6.90;;;;;;;23.15;44.15;100764.59;4154633;28;20252;-84
2022/10/03 08:28:50;;;;;;;10.27;7.30;;;;;;;23.22;43.67;100785.44;4170487;28;20251;-85
2022/10/03 08:31:01;;;;;;;8.97;7.90;;;;;;;22.80;45.09;100808.34;4153877;28;20243;-86
2022/10/03 08:33:42;;;;;;;15.13;10.77;;;;;;;22.66;45.58;100814.88;4153747;28;20262;-84
2022/10/03 08:36:09;;;;;;;15.77;8.33;;;;;;;23.45;43.66;100753.13;4164435;28;20307;-85
2022/10/03 08:38:42;;;;;;;14.53;8.20;;;;;;;23.54;43.98;100759.13;4164730;28;20378;-86
2022/10/03 08:41:11;;;;;;;18.70;11.13;;;;;;;22.84;44.60;100833.13;4151590;28;20244;-84
2022/10/03 08:43:34;;;;;;;16.20;9.73;;;;;;;23.20;44.97;100813.59;4173995;28;20227;-85
2022/10/03 08:46:04;;;;;;;15.60;9.10;;;;;;;23.53;44.25;100765.59;4166460;28;20710;-84
2022/10/03 08:48:44;;;;;;;13.27;10.23;;;;;;;23.54;44.76;100769.97;4169484;28;20258;-85
2022/10/03 08:51:13;;;;;;;15.73;10.10;;;;;;;23.96;43.78;100734.97;4144564;28;20771;-85
2022/10/03 08:53:43;;;;;;;15.40;10.37;;;;;;;22.81;45.19;100836.28;4165751;28;20216;-85
2022/10/03 08:56:14;;;;;;;16.83;9.97;;;;;;;21.66;47.42;100878.03;4152092;28;20364;-84
2022/10/03 08:58:43;;;;;;;16.90;10.83;;;;;;;23.35;45.09;100766.34;4165326;28;20315;-85
2022/10/03 09:01:19;;;;;;;16.10;11.27;;;;;;;22.49;46.10;100833.47;4170337;28;20674;-85
2022/10/03 09:03:44;;;;;;;18.80;10.17;;;;;;;23.18;45.29;100771.44;4160506;28;20341;-86
2022/10/03 09:06:11;;;;;;;15.20;10.70;;;;;;;22.35;46.38;100820.97;4165251;28;20235;-85
2022/10/03 09:08:27;;;;;;;15.50;10.57;;;;;;;22.74;45.92;100814.63;4164527;28;20879;-84
2022/10/03 09:10:51;;;;;;;19.57;11.83;;;;;;;22.24;46.30;100841.41;4171813;28;20916;-84
2022/10/03 09:12:52;;;;;;;21.57;12.50;;;;;;;23.19;45.55;100756.84;4170792;28;20344;-84
2022/10/03 09:15:07;;;;;;;19.13;11.97;;;;;;;23.43;45.05;100765.25;4155401;28;20701;-84
2022/10/03 09:17:27;;;;;;;20.93;11.47;;;;;;;23.47;44.80;100748.31;4153165;28;20662;-84
2022/10/03 09:19:51;;;;;;;19.97;11.57;;;;;;;23.62;44.11;100752.59;4144878;28;20322;-84
2022/10/03 09:22:01;;;;;;;19.43;12.03;;;;;;;23.83;44.01;100754.91;4150987;28;20810;-85
2022/10/03 09:24:24;;;;;;;20.27;11.60;;;;;;;22.69;46.34;100817.13;4169829;28;20319;-85
2022/10/03 09:26:29;;;;;;;21.40;12.63;;;;;;;23.67;44.91;100748.19;4173370;28;20255;-84
2022/10/03 09:28:55;;;;;;;15.57;11.33;;;;;;;24.29;43.64;100712.91;4169789;28;20266;-86
2022/10/03 09:31:09;;;;;;;16.40;10.30;;;;;;;23.55;44.18;100804.19;4168328;28;20251;-83
2022/10/03 09:33:32;;;;;;;16.90;9.47;;;;;;;23.84;44.02;100756.59;4145940;28;20525;-85
2022/10/03 09:35:39;;;;;;;14.13;8.80;;;;;;;23.37;44.25;100821.25;4147040;28;20328;-84
2022/10/03 09:38:19;;;;;;;15.07;9.73;;;;;;;23.60;43.78;100814.44;4181788;28;20247;-85
2022/10/03 09:41:04;;;;;;;17.13;10.03;;;;;;;24.67;42.81;100727.28;4174726;28;20679;-85
2022/10/03 09:43:21;;;;;;;15.23;9.20;;;;;;;24.24;43.59;100749.94;4148500;28;20292;-86
2022/10/03 09:45:44;;;;;;;14.37;9.67;;;;;;;23.55;44.40;100806.91;4170834;28;20236;-85
2022/10/03 09:48:04;;;;;;;16.10;11.60;;;;;;;23.82;43.85;100774.97;4164498;28;20368;-86
2022/10/03 09:50:26;;;;;;;16.63;11.33;;;;;;;23.13;44.32;100839.09;4166469;28;20327;-85
2022/10/03 09:53:18;;;;;;;19.30;13.43;;;;;;;23.38;44.05;100826.47;4153454;28;20320;-86
2022/10/03 09:56:01;;;;;;;33.60;18.40;;;;;;;23.26;44.06;100836.31;4152920;28;20673;-85
2022/10/03 09:58:28;;;;;;;29.53;17.67;;;;;;;24.35;43.08;100753.81;4136909;28;20236;-85
2022/10/03 10:00:51;;;;;;;17.17;13.20;;;;;;;23.27;43.49;100846.13;4147359;28;20347;-85
2022/10/03 10:03:30;;;;;;;18.03;12.80;;;;;;;23.54;43.38;100843.25;4130670;28;20577;-85
2022/10/03 10:05:59;;;;;;;15.53;9.70;;;;;;;24.12;42.55;100788.69;4150224;28;20794;-85
2022/10/03 10:08:32;;;;;;;12.03;9.63;;;;;;;24.20;42.62;100786.78;4167771;28;20323;-85
2022/10/03 10:10:51;;;;;;;15.47;10.20;;;;;;;24.73;41.96;100748.09;4153340;28;20680;-85
2022/10/03 10:13:18;;;;;;;12.07;9.13;;;;;;;23.72;43.54;100832.53;4152747;28;20248;-84
2022/10/03 10:15:35;;;;;;;12.17;9.17;;;;;;;24.56;42.58;100766.09;4163416;28;20323;-85
2022/10/03 10:17:45;;;;;;;16.70;9.37;;;;;;;24.53;41.86;100794.59;4162752;28;20326;-86
2022/10/03 10:20:20;;;;;;;18.93;7.80;;;;;;;23.00;44.57;100845.44;4167869;28;20261;-84
2022/10/03 10:22:45;;;;;;;13.93;8.17;;;;;;;24.38;42.92;100756.06;4173229;28;20261;-83
2022/10/03 10:25:19;;;;;;;18.00;8.03;;;;;;;24.13;43.20;100773.25;4151475;28;20312;-83
2022/10/03 10:27:42;;;;;;;12.83;7.37;;;;;;;24.89;41.47;100738.50;4154268;28;20332;-85
2022/10/03 10:30:11;;;;;;;13.00;7.53;;;;;;;24.56;41.82;100775.06;4157553;28;20291;-85
2022/10/03 10:32:50;;;;;;;13.00;8.77;;;;;;;24.33;42.42;100802.09;4142694;28;20844;-85
2022/10/03 10:35:17;;;;;;;17.33;8.43;;;;;;;24.56;42.18;100775.06;4170153;28;20323;-86
2022/10/03 10:37:53;;;;;;;9.93;7.67;;;;;;;23.47;43.02;100845.16;4148313;28;20514;-86
2022/10/03 10:40:00;;;;;;;14.30;7.27;;;;;;;23.69;43.29;100834.84;4150428;28;20236;-84
2022/10/03 10:42:26;;;;;;;11.80;6.30;;;;;;;23.67;42.85;100826.06;4151680;28;20327;-85
2022/10/03 10:45:12;;;;;;;11.40;6.50;;;;;;;23.54;43.36;100840.56;4163822;28;20799;-84
2022/10/03 10:47:41;;;;;;;14.13;8.40;;;;;;;23.49;44.24;100835.78;4158719;28;20235;-84
2022/10/03 10:50:14;;;;;;;12.03;8.17;;;;;;;23.49;43.52;100838.50;4147559;28;20382;-84
2022/10/03 10:52:34;;;;;;;17.33;8.23;;;;;;;23.98;42.87;100799.94;4168722;28;20286;-85
2022/10/03 10:55:12;;;;;;;14.53;8.13;;;;;;;23.16;44.45;100796.09;4170095;28;20258;-85
2022/10/03 10:57:44;;;;;;;14.87;8.67;;;;;;;23.76;43.88;100795.72;4144073;28;20280;-86
2022/10/03 11:03:59;;;;;;;14.50;7.93;;;;;;;20.87;50.31;100733.38;4161998;27;21125;-68
2022/10/03 11:06:26;;;;;;;10.90;6.33;;;;;;;21.36;47.78;100743.06;4140438;28;20232;-69
2022/10/03 11:09:08;;;;;;;11.70;4.70;;;;;;;20.59;46.50;100799.16;4141373;28;20237;-68
2022/10/03 11:11:35;;;;;;;10.30;5.17;;;;;;;21.71;45.93;100723.97;4115823;28;20805;-68
2022/10/03 11:14:16;;;;;;;11.43;4.37;;;;;;;21.38;46.00;100788.00;4134426;28;20324;-68
2022/10/03 11:16:36;;;;;;;10.67;4.70;;;;;;;22.16;45.29;100714.31;4145874;28;20236;-69
2022/10/03 11:19:05;;;;;;;15.70;5.27;;;;;;;22.56;45.08;100717.75;4149753;28;20236;-68
2022/10/03 11:21:09;;;;;;;8.43;4.43;;;;;;;22.37;44.45;100765.56;4149977;28;20217;-68
2022/10/03 11:24:05;;;;;;;13.33;5.47;;;;;;;22.19;43.18;100798.69;4156780;28;20243;-68
2022/10/03 11:26:51;;;;;;;11.20;5.60;;;;;;;22.16;44.28;100769.31;4149703;28;20652;-68
2022/10/03 11:29:30;;;;;;;10.50;5.80;;;;;;;22.03;44.29;100807.25;4163414;28;20220;-69
2022/10/03 11:32:17;;;;;;;11.03;6.00;;;;;;;22.46;44.56;100782.41;4138569;28;20233;-68
2022/10/03 11:34:50;;;;;;;14.37;6.30;;;;;;;22.62;44.35;100748.56;4145774;28;20221;-68
2022/10/03 11:37:42;;;;;;;11.33;5.80;;;;;;;22.65;43.32;100767.94;4144548;28;20359;-67
2022/10/03 11:40:03;;;;;;;10.57;5.20;;;;;;;23.04;42.97;100749.00;4129184;28;20236;-69
2022/10/03 11:42:27;;;;;;;11.27;5.40;;;;;;;22.60;43.36;100813.81;4134389;28;20725;-68
2022/10/03 11:44:40;;;;;;;14.20;5.97;;;;;;;23.28;43.46;100765.56;4134373;28;20745;-68
2022/10/03 11:46:51;;;;;;;10.73;6.07;;;;;;;23.07;43.75;100786.56;4137569;28;20232;-68
2022/10/03 11:49:00;;;;;;;10.10;5.43;;;;;;;22.87;43.86;100761.38;4163695;28;20239;-69
2022/10/03 11:51:09;;;;;;;12.03;5.60;;;;;;;22.62;43.67;100794.63;4155779;28;20236;-68
2022/10/03 11:53:35;;;;;;;10.20;5.73;;;;;;;23.09;43.99;100756.50;4152882;28;20239;-68